Time;durP1;ratioP1;P1;durP2;ratioP2;P2;SDS_P1;SDS_P2;PMS_P1;PMS_P2;Temp;Humidity;BMP_temperature;BMP_pressure;BME280_temperature;BME280_humidity;BME280_pressure;Samples;Min_cycle;Max_cycle;Signal;HPM_P1;HPM_P2
2022/04/13 00:00:13;;;;;;;6.95;5.00;;;5.50;99.90;;;;;;4959552;29;20031;-77
2022/04/13 00:02:39;;;;;;;7.03;4.80;;;5.50;99.90;;;;;;4941963;29;20479;-77
2022/04/13 00:05:09;;;;;;;7.25;5.10;;;5.50;99.90;;;;;;4941407;29;20046;-77
2022/04/13 00:07:35;;;;;;;5.70;5.00;;;5.40;99.90;;;;;;4958978;29;20023;-77
2022/04/13 00:10:01;;;;;;;7.95;5.20;;;5.40;99.90;;;;;;4941090;29;20479;-78
2022/04/13 00:12:27;;;;;;;10.40;5.50;;;5.40;99.90;;;;;;4958320;29;20070;-77
2022/04/13 00:14:53;;;;;;;8.45;5.70;;;5.40;99.90;;;;;;4958201;29;20106;-78
2022/04/13 00:17:20;;;;;;;7.05;4.80;;;5.30;99.90;;;;;;4940598;29;20058;-77
2022/04/13 00:19:45;;;;;;;10.48;5.22;;;5.30;99.90;;;;;;4958209;29;20023;-77
2022/04/13 00:22:11;;;;;;;9.68;5.57;;;5.30;99.90;;;;;;4939809;29;20046;-77
2022/04/13 00:24:37;;;;;;;7.35;5.30;;;5.20;99.90;;;;;;4939761;29;20419;-77
2022/04/13 00:27:03;;;;;;;9.85;5.78;;;5.20;99.90;;;;;;4957501;29;20398;-77
2022/04/13 00:29:30;;;;;;;8.27;4.68;;;5.10;99.90;;;;;;4957344;29;20027;-77
2022/04/13 00:32:01;;;;;;;7.72;5.30;;;5.10;99.90;;;;;;4956810;29;20130;-78
2022/04/13 00:34:26;;;;;;;9.02;4.78;;;5.10;99.90;;;;;;4956907;29;20102;-77
2022/04/13 00:36:52;;;;;;;8.98;5.28;;;5.00;99.90;;;;;;4939388;29;20047;-77
2022/04/13 00:39:17;;;;;;;8.32;4.70;;;5.00;99.90;;;;;;4956546;29;20034;-78
2022/04/13 00:41:43;;;;;;;6.78;4.78;;;5.00;99.90;;;;;;4938805;29;20546;-77
2022/04/13 00:44:10;;;;;;;9.45;5.38;;;4.90;99.90;;;;;;4956381;29;20023;-78
2022/04/13 00:46:36;;;;;;;8.43;5.20;;;5.00;99.90;;;;;;4938900;29;20027;-77
2022/04/13 00:49:04;;;;;;;9.60;4.88;;;4.80;99.90;;;;;;4960204;29;20041;-77
2022/04/13 00:51:31;;;;;;;10.13;4.85;;;4.80;99.90;;;;;;4959749;29;20035;-77
2022/04/13 00:53:58;;;;;;;12.20;5.05;;;4.80;99.90;;;;;;4959995;29;20027;-77
2022/04/13 00:56:27;;;;;;;8.43;4.63;;;4.70;99.90;;;;;;4942279;29;20034;-77
2022/04/13 00:59:01;;;;;;;9.43;4.82;;;4.80;99.90;;;;;;4942607;29;20463;-77
2022/04/13 01:01:28;;;;;;;10.43;5.65;;;4.70;99.90;;;;;;4959826;29;20481;-77
2022/04/13 01:03:54;;;;;;;7.00;5.47;;;4.70;99.90;;;;;;4942145;29;20102;-77
2022/04/13 01:06:20;;;;;;;5.95;4.50;;;4.70;99.90;;;;;;4959322;29;20032;-78
2022/04/13 01:08:49;;;;;;;8.05;5.18;;;4.70;99.90;;;;;;4959822;29;20487;-77
2022/04/13 01:11:19;;;;;;;7.25;5.43;;;4.70;99.90;;;;;;4959629;29;20424;-78
2022/04/13 01:13:45;;;;;;;9.18;4.95;;;4.60;99.90;;;;;;4942154;29;20494;-77
2022/04/13 01:16:11;;;;;;;7.25;5.18;;;4.60;99.90;;;;;;4959030;29;20036;-78
2022/04/13 01:18:37;;;;;;;6.97;4.68;;;4.70;99.90;;;;;;4959328;29;20026;-77
2022/04/13 01:21:03;;;;;;;7.80;4.93;;;4.70;99.90;;;;;;4959114;29;20035;-77
2022/04/13 01:23:30;;;;;;;6.78;5.25;;;4.70;99.90;;;;;;4959098;29;20074;-77
2022/04/13 01:25:56;;;;;;;8.45;4.95;;;4.70;99.90;;;;;;4958774;29;20031;-78
2022/04/13 01:28:23;;;;;;;5.55;4.25;;;4.80;99.90;;;;;;4958516;29;20031;-77
2022/04/13 01:30:50;;;;;;;6.25;5.03;;;4.80;99.90;;;;;;4959102;29;20621;-78
2022/04/13 01:33:16;;;;;;;7.32;4.97;;;5.00;99.90;;;;;;4958431;29;20130;-77
2022/04/13 01:35:41;;;;;;;10.40;5.28;;;4.70;99.90;;;;;;4958739;29;20058;-77
2022/04/13 01:38:07;;;;;;;8.00;5.13;;;4.60;99.90;;;;;;4958855;29;20426;-77
2022/04/13 01:40:33;;;;;;;7.53;5.22;;;4.50;99.90;;;;;;4959307;29;20063;-77
2022/04/13 01:43:00;;;;;;;9.85;4.97;;;4.50;99.90;;;;;;4959187;29;20028;-77
2022/04/13 01:45:25;;;;;;;7.88;4.78;;;4.60;99.90;;;;;;4958874;29;20463;-78
2022/04/13 01:47:51;;;;;;;8.90;4.93;;;4.50;99.90;;;;;;4941587;29;20030;-77
2022/04/13 01:50:19;;;;;;;8.52;5.43;;;4.50;99.90;;;;;;4941362;29;20027;-77
2022/04/13 01:52:46;;;;;;;10.25;4.97;;;4.50;99.90;;;;;;4925496;29;20049;-77
2022/04/13 01:55:14;;;;;;;6.40;4.50;;;4.50;99.90;;;;;;4958601;29;20015;-77
2022/04/13 01:57:42;;;;;;;6.60;4.80;;;4.50;99.90;;;;;;4958774;28;20031;-77
2022/04/13 02:00:10;;;;;;;6.47;4.05;;;4.30;99.90;;;;;;4941903;29;20043;-77
2022/04/13 02:02:36;;;;;;;6.55;3.97;;;4.40;99.90;;;;;;4958626;29;20117;-76
2022/04/13 02:05:02;;;;;;;8.13;4.05;;;4.40;99.90;;;;;;4941082;29;20419;-78
2022/04/13 02:07:28;;;;;;;6.25;4.22;;;4.30;99.90;;;;;;4957763;29;20110;-77
2022/04/13 02:09:57;;;;;;;4.85;3.50;;;4.30;99.90;;;;;;4925386;29;20031;-78
2022/04/13 02:12:23;;;;;;;4.85;3.33;;;4.10;99.90;;;;;;4940961;29;20031;-77
2022/04/13 02:14:48;;;;;;;5.00;3.08;;;4.20;99.90;;;;;;4958036;29;20027;-77
2022/04/13 02:17:18;;;;;;;7.15;3.78;;;4.30;99.90;;;;;;4958086;29;20027;-77
2022/04/13 02:19:44;;;;;;;8.55;3.85;;;4.20;99.90;;;;;;4957799;29;20031;-77
2022/04/13 02:22:13;;;;;;;5.68;3.97;;;4.20;99.90;;;;;;4957837;29;20019;-77
2022/04/13 02:24:39;;;;;;;7.28;4.38;;;4.00;99.90;;;;;;4957693;29;20375;-77
2022/04/13 02:27:09;;;;;;;6.30;4.03;;;4.00;99.90;;;;;;4957993;29;20050;-77
2022/04/13 02:29:36;;;;;;;4.75;4.18;;;3.90;99.90;;;;;;4940406;29;20422;-77
2022/04/13 02:32:03;;;;;;;8.05;5.50;;;3.90;99.90;;;;;;4957506;29;20066;-78
2022/04/13 02:34:28;;;;;;;7.93;5.60;;;3.90;99.90;;;;;;4957456;29;20367;-77
2022/04/13 02:36:54;;;;;;;8.95;5.60;;;3.90;99.90;;;;;;4940433;29;20042;-77
2022/04/13 02:39:19;;;;;;;7.22;5.70;;;3.80;99.90;;;;;;4957479;29;20024;-77
2022/04/13 02:41:45;;;;;;;8.23;4.22;;;3.80;99.90;;;;;;4957789;29;20015;-77
2022/04/13 02:44:11;;;;;;;7.80;5.43;;;3.80;99.90;;;;;;4957252;29;20424;-78
2022/04/13 02:46:37;;;;;;;6.03;4.85;;;3.80;99.90;;;;;;4947477;29;20118;-78
2022/04/13 02:49:02;;;;;;;6.18;4.47;;;3.80;99.90;;;;;;4967079;29;20701;-78
2022/04/13 02:51:28;;;;;;;7.43;4.70;;;3.70;99.90;;;;;;4963714;29;20035;-77
2022/04/13 02:53:53;;;;;;;7.22;4.80;;;3.60;99.90;;;;;;4945233;29;20382;-77
2022/04/13 02:56:19;;;;;;;7.80;4.60;;;3.60;99.90;;;;;;4962080;29;20039;-78
2022/04/13 02:58:45;;;;;;;7.90;4.68;;;3.60;99.90;;;;;;4961766;29;20031;-78
2022/04/13 03:01:11;;;;;;;5.28;4.38;;;3.50;99.90;;;;;;4961535;29;20027;-77
2022/04/13 03:03:38;;;;;;;6.90;4.40;;;3.50;99.90;;;;;;4961076;29;20059;-77
2022/04/13 03:06:04;;;;;;;8.38;5.35;;;3.50;99.90;;;;;;4960636;29;20446;-77
2022/04/13 03:08:30;;;;;;;10.98;5.40;;;3.50;99.90;;;;;;4960517;29;20027;-77
2022/04/13 03:10:57;;;;;;;7.63;6.13;;;3.40;99.90;;;;;;4959907;28;20034;-77
2022/04/13 03:13:24;;;;;;;14.48;13.05;;;3.50;99.90;;;;;;4943094;29;20061;-77
2022/04/13 03:15:49;;;;;;;7.68;6.70;;;3.40;99.90;;;;;;4958950;29;20030;-78
2022/04/13 03:18:15;;;;;;;9.32;6.68;;;3.40;99.90;;;;;;4959229;29;20031;-77
2022/04/13 03:20:41;;;;;;;6.85;4.55;;;3.40;99.90;;;;;;4959364;29;20114;-78
2022/04/13 03:23:06;;;;;;;5.72;5.03;;;3.30;99.90;;;;;;4958825;29;20106;-77
2022/04/13 03:25:33;;;;;;;6.57;4.35;;;3.30;99.90;;;;;;4940802;29;20489;-77
2022/04/13 03:27:59;;;;;;;8.73;4.43;;;3.30;99.90;;;;;;4958023;29;20024;-77
2022/04/13 03:30:24;;;;;;;6.82;4.68;;;3.20;99.90;;;;;;4940420;29;20027;-77
2022/04/13 03:32:53;;;;;;;10.02;5.57;;;3.20;99.90;;;;;;4958134;29;20146;-77
2022/04/13 03:35:19;;;;;;;6.82;4.78;;;3.20;99.90;;;;;;4957186;29;20023;-77
2022/04/13 03:37:45;;;;;;;9.40;5.70;;;3.10;99.90;;;;;;4957787;29;20546;-77
2022/04/13 03:40:11;;;;;;;8.60;5.32;;;3.10;99.90;;;;;;4958101;29;20035;-77
2022/04/13 03:42:38;;;;;;;7.72;4.93;;;3.00;99.90;;;;;;4939789;29;20114;-78
2022/04/13 03:45:06;;;;;;;11.05;6.70;;;3.20;99.90;;;;;;4957026;29;20086;-77
2022/04/13 03:47:31;;;;;;;7.90;5.85;;;3.00;99.90;;;;;;4925728;29;20443;-77
2022/04/13 03:49:57;;;;;;;9.63;5.22;;;4.10;99.90;;;;;;4958194;29;20024;-77
2022/04/13 03:52:23;;;;;;;8.32;5.80;;;3.00;99.90;;;;;;4939818;29;20031;-77
2022/04/13 03:54:48;;;;;;;8.88;6.50;;;3.00;99.90;;;;;;4939706;29;20419;-77
2022/04/13 03:57:14;;;;;;;8.35;6.53;;;3.00;99.90;;;;;;4955344;29;20394;-77
2022/04/13 03:59:40;;;;;;;8.90;5.03;;;2.90;99.90;;;;;;4955711;29;20490;-77
2022/04/13 04:02:06;;;;;;;10.23;5.05;;;3.00;99.90;;;;;;4956412;29;20039;-77
2022/04/13 04:04:31;;;;;;;8.50;5.80;;;2.90;99.90;;;;;;4956271;29;20027;-78
2022/04/13 04:06:57;;;;;;;12.63;5.93;;;2.90;99.90;;;;;;4938459;29;20546;-77
2022/04/13 04:09:23;;;;;;;8.25;6.28;;;2.90;99.90;;;;;;4955963;29;20024;-78
2022/04/13 04:11:49;;;;;;;10.30;5.13;;;2.90;99.90;;;;;;4955739;29;20450;-77
2022/04/13 04:14:14;;;;;;;8.65;5.60;;;2.90;99.90;;;;;;4938018;29;20082;-77
2022/04/13 04:16:41;;;;;;;9.70;5.93;;;2.80;99.90;;;;;;4938801;29;20031;-77
2022/04/13 04:19:07;;;;;;;12.93;5.22;;;2.80;99.90;;;;;;4958446;29;20058;-78
2022/04/13 04:21:33;;;;;;;9.02;5.30;;;2.90;99.90;;;;;;4955480;28;20067;-76
2022/04/13 04:23:58;;;;;;;8.45;5.97;;;2.80;99.90;;;;;;4962363;29;20019;-79
2022/04/13 04:26:24;;;;;;;10.00;6.13;;;2.80;99.90;;;;;;4958683;29;20030;-77
2022/04/13 04:28:50;;;;;;;9.40;5.38;;;2.90;99.90;;;;;;4938403;29;20031;-77
2022/04/13 04:31:19;;;;;;;9.30;6.20;;;2.90;99.90;;;;;;4956882;29;20032;-77
2022/04/13 04:33:45;;;;;;;11.82;7.53;;;3.50;99.90;;;;;;4939600;29;20110;-78
2022/04/13 04:36:11;;;;;;;9.82;6.05;;;3.70;99.90;;;;;;4940283;29;20058;-77
2022/04/13 04:38:37;;;;;;;14.38;6.32;;;3.50;99.90;;;;;;4940743;29;20027;-78
2022/04/13 04:41:03;;;;;;;13.13;5.55;;;3.40;99.90;;;;;;4957486;29;20031;-78
2022/04/13 04:43:29;;;;;;;9.85;5.57;;;3.40;99.90;;;;;;4939240;29;20118;-78
2022/04/13 04:45:54;;;;;;;9.30;6.10;;;3.40;99.90;;;;;;4939051;29;20070;-77
2022/04/13 04:48:20;;;;;;;13.25;5.75;;;3.30;99.90;;;;;;4956459;29;20032;-77
2022/04/13 04:50:46;;;;;;;12.13;5.78;;;3.40;99.90;;;;;;4939042;29;20399;-76
2022/04/13 04:53:11;;;;;;;12.82;7.72;;;3.20;99.90;;;;;;4938543;29;20170;-77
2022/04/13 04:55:37;;;;;;;12.20;7.10;;;3.30;99.90;;;;;;4956130;29;20046;-78
2022/04/13 04:58:03;;;;;;;9.65;5.70;;;3.30;99.90;;;;;;4938876;29;20042;-77
2022/04/13 05:00:35;;;;;;;12.45;6.43;;;3.30;99.90;;;;;;4955803;29;20078;-77
2022/04/13 05:03:00;;;;;;;10.00;6.57;;;3.30;99.90;;;;;;4955258;29;20459;-77
2022/04/13 05:05:26;;;;;;;11.23;5.82;;;3.40;99.90;;;;;;4955281;29;20042;-77
2022/04/13 05:07:52;;;;;;;10.95;5.25;;;3.70;99.90;;;;;;4955834;29;20044;-77
2022/04/13 05:10:17;;;;;;;9.65;6.72;;;3.90;99.90;;;;;;4937936;29;20435;-78
2022/04/13 05:12:49;;;;;;;9.73;5.82;;;3.50;99.90;;;;;;4937844;29;20031;-78
2022/04/13 05:15:15;;;;;;;12.15;6.68;;;3.50;99.90;;;;;;4937765;29;20028;-77
2022/04/13 05:17:41;;;;;;;12.15;7.10;;;3.60;99.90;;;;;;4938463;29;20037;-77
2022/04/13 05:20:08;;;;;;;10.15;6.63;;;3.70;99.90;;;;;;4955773;29;20027;-77
2022/04/13 05:22:35;;;;;;;9.07;6.53;;;3.70;99.90;;;;;;4938678;29;20028;-78
2022/04/13 05:25:05;;;;;;;10.48;6.93;;;3.90;99.90;;;;;;4938812;29;20364;-78
2022/04/13 05:27:31;;;;;;;13.07;6.88;;;3.80;99.90;;;;;;4938133;29;20058;-78
2022/04/13 05:29:58;;;;;;;9.98;6.45;;;3.90;99.90;;;;;;4955312;29;20027;-78
2022/04/13 05:32:24;;;;;;;10.77;6.57;;;4.00;99.90;;;;;;4954986;28;20107;-78
2022/04/13 05:34:50;;;;;;;11.38;6.90;;;4.20;99.90;;;;;;4959109;29;20023;-77
2022/04/13 05:37:15;;;;;;;11.82;7.07;;;4.30;99.90;;;;;;4958621;29;20114;-77
2022/04/13 05:39:41;;;;;;;12.82;6.18;;;4.40;99.90;;;;;;4958638;29;20031;-77
2022/04/13 05:42:08;;;;;;;12.63;6.10;;;4.50;99.90;;;;;;4958460;29;20160;-78
2022/04/13 05:44:34;;;;;;;11.02;6.03;;;4.60;99.90;;;;;;4958715;29;20490;-77
2022/04/13 05:47:00;;;;;;;12.13;6.60;;;4.70;99.90;;;;;;4958830;29;20116;-77
2022/04/13 05:49:25;;;;;;;8.77;5.60;;;4.80;99.90;;;;;;4959422;29;20051;-77
2022/04/13 05:51:51;;;;;;;13.25;5.95;;;4.90;99.90;;;;;;4941537;29;20039;-77
2022/04/13 05:54:16;;;;;;;10.73;5.97;;;5.00;99.90;;;;;;4959692;29;20059;-77
2022/04/13 05:56:42;;;;;;;9.07;5.80;;;5.10;99.90;;;;;;4958854;29;20093;-78
2022/04/13 05:59:08;;;;;;;9.00;6.07;;;5.60;99.90;;;;;;4958511;29;20479;-78
2022/04/13 06:01:33;;;;;;;9.40;5.65;;;5.40;99.90;;;;;;4941591;29;20091;-77
2022/04/13 06:03:59;;;;;;;7.30;5.28;;;5.10;99.90;;;;;;4959039;29;20122;-78
2022/04/13 06:06:28;;;;;;;8.93;6.05;;;5.60;99.90;;;;;;4941542;29;20118;-77
2022/04/13 06:08:53;;;;;;;8.25;5.40;;;5.70;99.90;;;;;;4958573;29;20039;-77
2022/04/13 06:11:19;;;;;;;12.68;5.82;;;5.90;99.90;;;;;;4959455;29;20027;-77
2022/04/13 06:13:45;;;;;;;9.95;7.68;;;6.00;99.90;;;;;;4941663;29;20030;-77
2022/04/13 06:16:11;;;;;;;9.77;6.63;;;6.20;99.90;;;;;;4963599;29;20082;-77
2022/04/13 06:18:36;;;;;;;9.63;6.68;;;6.40;99.90;;;;;;4965397;29;20051;-77
2022/04/13 06:21:03;;;;;;;9.68;6.10;;;7.60;99.90;;;;;;4947025;29;20038;-77
2022/04/13 06:23:30;;;;;;;8.20;6.03;;;6.80;99.90;;;;;;4963517;29;20038;-77
2022/04/13 06:25:55;;;;;;;9.23;6.47;;;6.70;99.90;;;;;;4963379;29;20054;-77
2022/04/13 06:28:21;;;;;;;7.18;5.80;;;7.00;99.90;;;;;;4962522;29;20471;-77
2022/04/13 06:30:47;;;;;;;8.35;5.72;;;7.10;99.90;;;;;;4962034;29;20082;-78
2022/04/13 06:33:12;;;;;;;9.95;6.60;;;7.30;99.90;;;;;;4960728;29;20055;-77
2022/04/13 06:35:38;;;;;;;9.52;5.85;;;7.40;99.90;;;;;;4960627;29;20082;-77
2022/04/13 06:38:04;;;;;;;9.88;6.18;;;7.60;99.90;;;;;;4960682;29;20534;-77
2022/04/13 06:40:29;;;;;;;8.70;5.50;;;7.90;99.90;;;;;;4959952;29;20086;-77
2022/04/13 06:42:55;;;;;;;8.80;6.10;;;7.90;99.90;;;;;;4942335;29;20063;-77
2022/04/13 06:45:22;;;;;;;12.18;6.57;;;8.10;99.90;;;;;;4941196;29;20023;-77
2022/04/13 06:47:48;;;;;;;7.40;5.57;;;8.20;99.90;;;;;;4960272;29;20030;-78
2022/04/13 06:50:15;;;;;;;8.90;6.55;;;8.40;99.90;;;;;;4944449;29;20031;-78
2022/04/13 06:52:42;;;;;;;8.25;5.93;;;8.70;99.90;;;;;;4957451;29;20077;-77
2022/04/13 06:55:11;;;;;;;12.38;7.13;;;8.90;99.90;;;;;;4940525;29;20510;-78
2022/04/13 06:57:37;;;;;;;10.52;6.63;;;9.00;98.70;;;;;;4940907;29;20033;-76
2022/04/13 07:00:08;;;;;;;10.82;7.30;;;9.20;97.10;;;;;;4956287;29;20502;-77
2022/04/13 07:02:35;;;;;;;12.88;7.38;;;9.40;99.60;;;;;;4956481;29;20020;-78
2022/04/13 07:05:01;;;;;;;9.45;6.32;;;9.50;97.20;;;;;;4938405;29;20023;-78
2022/04/13 07:07:27;;;;;;;11.38;7.20;;;9.60;94.10;;;;;;4955398;29;20379;-78
2022/04/13 07:09:52;;;;;;;12.23;7.63;;;9.70;93.00;;;;;;4938345;29;20031;-78
2022/04/13 07:12:18;;;;;;;12.23;7.22;;;10.00;96.50;;;;;;4937933;29;20479;-78
2022/04/13 07:14:44;;;;;;;8.13;5.97;;;10.10;99.90;;;;;;4955587;29;20111;-81
2022/04/13 07:17:10;;;;;;;10.68;6.75;;;10.70;99.90;;;;;;4955244;29;20063;-77
2022/04/13 07:19:36;;;;;;;10.02;6.43;;;11.00;99.60;;;;;;4954688;29;20110;-78
2022/04/13 07:22:02;;;;;;;10.25;7.13;;;11.10;97.80;;;;;;4938129;29;20113;-78
2022/04/13 07:24:27;;;;;;;10.65;6.70;;;11.20;96.00;;;;;;4955283;29;20551;-78
2022/04/13 07:26:54;;;;;;;10.98;6.40;;;11.10;94.10;;;;;;4937914;29;20114;-78
2022/04/13 07:29:19;;;;;;;12.02;6.50;;;11.10;94.00;;;;;;4937829;29;20036;-78
2022/04/13 07:31:45;;;;;;;11.55;6.43;;;11.20;94.60;;;;;;4937807;29;20039;-78
2022/04/13 07:34:13;;;;;;;11.88;6.65;;;11.20;90.40;;;;;;4955060;29;20463;-77
2022/04/13 07:36:38;;;;;;;12.98;6.82;;;11.20;90.60;;;;;;4954905;29;20039;-77
2022/04/13 07:39:04;;;;;;;10.10;6.65;;;11.40;90.10;;;;;;4937780;29;20050;-78
2022/04/13 07:41:30;;;;;;;11.85;6.95;;;11.50;90.80;;;;;;4955095;29;20059;-78
2022/04/13 07:43:57;;;;;;;13.70;7.10;;;11.60;89.60;;;;;;4937469;29;20023;-78
2022/04/13 07:46:28;;;;;;;10.10;6.80;;;11.70;89.10;;;;;;4937432;29;20035;-78
2022/04/13 07:48:54;;;;;;;9.00;6.13;;;11.80;87.70;;;;;;4954636;29;20111;-78
2022/04/13 07:51:20;;;;;;;10.07;6.13;;;11.90;86.40;;;;;;4937283;29;20035;-78
2022/04/13 07:53:46;;;;;;;9.98;6.68;;;11.90;86.90;;;;;;4937588;29;20110;-77
2022/04/13 07:56:11;;;;;;;10.93;6.38;;;12.00;86.20;;;;;;4937165;29;20118;-78
2022/04/13 07:58:37;;;;;;;14.48;6.63;;;12.10;87.40;;;;;;4937523;29;20031;-78
2022/04/13 08:01:03;;;;;;;11.52;6.70;;;12.20;87.00;;;;;;4954553;29;20027;-78
2022/04/13 08:03:29;;;;;;;11.30;6.28;;;12.30;85.30;;;;;;4954565;29;20031;-78
2022/04/13 08:05:55;;;;;;;11.40;6.22;;;12.40;86.10;;;;;;4937169;29;20105;-78
2022/04/13 08:08:20;;;;;;;9.18;5.78;;;12.50;84.20;;;;;;4954323;29;20102;-77
2022/04/13 08:10:46;;;;;;;7.35;5.30;;;12.50;85.00;;;;;;4954566;29;20027;-78
2022/04/13 08:13:12;;;;;;;9.48;6.30;;;12.70;84.50;;;;;;4954335;29;20035;-78
2022/04/13 08:15:38;;;;;;;8.40;5.97;;;12.80;82.60;;;;;;4937143;29;20081;-78
2022/04/13 08:18:04;;;;;;;9.82;6.20;;;12.80;83.00;;;;;;4954480;29;20035;-78
2022/04/13 08:20:30;;;;;;;11.43;6.10;;;12.90;82.40;;;;;;4937090;29;20462;-78
2022/04/13 08:22:57;;;;;;;8.88;5.85;;;13.00;83.90;;;;;;4954233;29;20042;-78
2022/04/13 08:25:23;;;;;;;9.27;6.13;;;13.10;83.00;;;;;;4936990;29;20057;-78
2022/04/13 08:27:49;;;;;;;8.05;5.90;;;13.20;81.90;;;;;;4954083;29;20035;-78
2022/04/13 08:30:15;;;;;;;9.98;6.22;;;13.30;81.00;;;;;;4954297;29;20027;-79
2022/04/13 08:32:41;;;;;;;7.32;5.90;;;13.40;82.30;;;;;;4936661;29;20129;-78
2022/04/13 08:35:09;;;;;;;7.80;6.10;;;13.50;80.70;;;;;;4954189;29;20095;-78
2022/04/13 08:37:36;;;;;;;7.60;5.30;;;13.50;81.70;;;;;;4954094;29;20549;-78
2022/04/13 08:40:02;;;;;;;11.30;6.43;;;13.60;80.50;;;;;;4954281;29;20106;-77
2022/04/13 08:42:55;;;;;;;8.32;5.75;;;13.70;80.00;;;;;;4937073;29;20501;-78
2022/04/13 08:45:25;;;;;;;7.32;5.90;;;13.80;80.30;;;;;;4936572;29;20114;-78
2022/04/13 08:47:56;;;;;;;8.02;5.53;;;13.90;78.60;;;;;;4953889;29;20605;-77
2022/04/13 08:50:26;;;;;;;7.95;6.00;;;14.00;79.20;;;;;;4953875;29;20035;-75
2022/04/13 08:52:59;;;;;;;11.10;5.95;;;14.10;80.20;;;;;;4953779;29;20039;-75
2022/04/13 08:55:27;;;;;;;8.20;5.47;;;14.20;79.10;;;;;;4953441;29;20371;-76
2022/04/13 08:58:30;;;;;;;8.55;5.63;;;14.20;79.00;;;;;;4953907;29;20046;-76
2022/04/13 09:01:02;;;;;;;10.68;5.82;;;14.30;79.40;;;;;;4953407;29;20375;-77
2022/04/13 09:03:44;;;;;;;9.07;5.72;;;14.40;77.60;;;;;;4953806;29;20031;-75
2022/04/13 09:06:10;;;;;;;8.90;5.90;;;14.50;77.60;;;;;;4953505;29;20034;-75
2022/04/13 09:08:48;;;;;;;6.85;5.43;;;14.50;77.50;;;;;;4955044;28;20095;-75
2022/04/13 09:11:16;;;;;;;7.22;5.50;;;14.60;78.60;;;;;;4957414;29;20142;-76
2022/04/13 09:13:44;;;;;;;8.70;6.28;;;14.60;77.40;;;;;;4940223;29;20053;-75
2022/04/13 09:16:09;;;;;;;9.73;6.20;;;14.80;76.40;;;;;;4940346;29;20375;-75
2022/04/13 09:18:35;;;;;;;9.55;6.00;;;14.90;78.10;;;;;;4957047;29;20038;-75
2022/04/13 09:21:01;;;;;;;8.77;6.20;;;15.00;78.10;;;;;;4957633;29;20019;-75
2022/04/13 09:23:28;;;;;;;7.65;6.13;;;15.10;75.90;;;;;;4957673;29;20031;-76
2022/04/13 09:25:56;;;;;;;9.57;6.22;;;15.10;75.60;;;;;;4940276;29;20038;-77
2022/04/13 09:28:21;;;;;;;9.48;6.07;;;15.00;76.90;;;;;;4940299;29;20493;-75
2022/04/13 09:30:47;;;;;;;8.93;6.00;;;15.10;76.20;;;;;;4957177;29;20163;-78
2022/04/13 09:33:13;;;;;;;6.50;5.72;;;15.20;75.10;;;;;;4956824;29;20491;-75
2022/04/13 09:35:39;;;;;;;8.50;5.57;;;15.30;75.70;;;;;;4939902;29;20118;-75
2022/04/13 09:38:06;;;;;;;9.35;5.47;;;15.40;75.50;;;;;;4957054;29;20035;-77
2022/04/13 09:40:40;;;;;;;8.57;6.75;;;15.40;74.80;;;;;;4957342;29;20023;-75
2022/04/13 09:43:18;;;;;;;9.00;5.85;;;15.40;76.00;;;;;;4957095;29;20352;-75
2022/04/13 09:45:49;;;;;;;9.35;6.03;;;15.50;74.00;;;;;;4956996;29;20090;-76
2022/04/13 09:48:21;;;;;;;11.45;5.57;;;15.50;73.60;;;;;;4957002;29;20031;-75
2022/04/13 09:50:49;;;;;;;10.80;5.75;;;15.50;73.60;;;;;;4939774;29;20073;-75
2022/04/13 09:53:16;;;;;;;11.43;5.57;;;15.60;76.00;;;;;;4939380;29;20952;-76
2022/04/13 09:55:50;;;;;;;11.32;5.90;;;15.70;74.50;;;;;;4956722;29;20045;-77
2022/04/13 09:58:18;;;;;;;10.95;6.53;;;15.80;74.70;;;;;;4939699;29;20034;-78
2022/04/13 10:00:46;;;;;;;6.93;5.03;;;15.80;73.40;;;;;;4939925;29;20031;-75
2022/04/13 10:03:13;;;;;;;12.55;5.82;;;15.80;73.30;;;;;;4957360;29;20029;-80
2022/04/13 10:05:45;;;;;;;7.85;5.82;;;15.90;74.30;;;;;;4957094;29;20349;-75
2022/04/13 10:08:14;;;;;;;8.38;5.25;;;16.00;73.40;;;;;;4956922;29;20023;-75
2022/04/13 10:10:50;;;;;;;10.25;5.63;;;16.10;73.20;;;;;;4956756;29;20061;-77
2022/04/13 10:13:36;;;;;;;12.40;5.22;;;16.10;73.00;;;;;;4956798;29;20039;-79
2022/04/13 10:16:04;;;;;;;9.60;5.40;;;16.20;71.20;;;;;;4956739;29;20035;-81
2022/04/13 10:18:50;;;;;;;9.60;4.45;;;16.30;71.60;;;;;;4956793;29;20024;-77
2022/04/13 10:21:40;;;;;;;6.50;5.45;;;16.30;71.20;;;;;;4956270;29;20117;-75
2022/04/13 10:24:27;;;;;;;7.45;4.90;;;16.40;69.90;;;;;;4956508;29;20134;-79
2022/04/13 10:27:01;;;;;;;12.25;4.78;;;16.40;70.10;;;;;;4956221;29;20114;-76
2022/04/13 10:29:27;;;;;;;8.80;5.18;;;16.50;70.30;;;;;;4939203;29;20629;-79
2022/04/13 10:32:05;;;;;;;8.38;4.95;;;16.50;70.10;;;;;;4955954;29;20118;-75
2022/04/13 10:34:36;;;;;;;9.43;5.10;;;16.60;72.00;;;;;;4956135;29;20041;-75
2022/04/13 10:37:02;;;;;;;7.35;5.65;;;16.70;71.20;;;;;;4956214;29;20118;-76
2022/04/13 10:39:30;;;;;;;7.20;4.78;;;16.80;71.50;;;;;;4956073;29;20073;-75
2022/04/13 10:41:56;;;;;;;5.50;4.18;;;16.90;69.50;;;;;;4956008;29;20050;-76
2022/04/13 10:44:49;;;;;;;6.38;4.75;;;17.00;69.80;;;;;;4955883;29;20034;-77
2022/04/13 10:47:18;;;;;;;9.65;4.45;;;17.10;68.90;;;;;;4955421;29;20071;-79
2022/04/13 10:49:55;;;;;;;6.32;4.72;;;17.20;69.90;;;;;;4939032;29;20340;-76
2022/04/13 10:52:27;;;;;;;12.38;4.75;;;17.30;71.00;;;;;;4955695;29;20438;-75
2022/04/13 10:54:59;;;;;;;5.50;4.38;;;17.40;70.10;;;;;;4938514;29;20474;-76
2022/04/13 10:57:34;;;;;;;5.65;4.13;;;17.40;68.80;;;;;;4938270;29;20027;-77
2022/04/13 11:00:03;;;;;;;9.23;4.47;;;17.40;68.40;;;;;;4955869;29;20149;-76
2022/04/13 11:02:34;;;;;;;5.93;4.20;;;17.50;70.30;;;;;;4955616;29;20559;-76
2022/04/13 11:05:00;;;;;;;9.90;4.30;;;17.60;69.60;;;;;;4955657;29;20034;-76
2022/04/13 11:07:26;;;;;;;6.20;4.57;;;17.60;69.30;;;;;;4955613;29;20427;-78
2022/04/13 11:09:57;;;;;;;11.68;3.90;;;17.80;70.50;;;;;;4938219;29;20027;-76
2022/04/13 11:12:26;;;;;;;5.90;3.80;;;17.90;69.60;;;;;;4955425;29;20039;-77
2022/04/13 11:14:54;;;;;;;5.03;3.40;;;18.00;68.10;;;;;;4955502;29;20059;-77
2022/04/13 11:17:20;;;;;;;5.40;2.40;;;18.00;67.40;;;;;;4955261;29;20035;-76
2022/04/13 11:19:48;;;;;;;4.15;2.58;;;18.20;66.50;;;;;;4938011;29;20090;-78
2022/04/13 11:22:16;;;;;;;3.40;2.80;;;18.30;66.80;;;;;;4955096;29;20558;-78
2022/04/13 11:24:54;;;;;;;5.05;3.20;;;18.40;66.60;;;;;;4954865;29;20019;-77
2022/04/13 11:27:20;;;;;;;8.95;2.75;;;18.40;66.20;;;;;;4954862;29;20106;-78
2022/04/13 11:29:58;;;;;;;3.05;2.50;;;18.40;65.60;;;;;;4937765;29;20059;-78
2022/04/13 11:32:25;;;;;;;6.93;3.05;;;18.60;65.40;;;;;;4954198;28;20047;-78
2022/04/13 11:34:51;;;;;;;4.63;2.40;;;18.60;65.50;;;;;;4954711;29;20383;-78
2022/04/13 11:37:40;;;;;;;15.50;4.00;;;18.60;64.00;;;;;;4954647;29;20034;-78
2022/04/13 11:40:10;;;;;;;3.25;2.88;;;18.70;64.00;;;;;;4954782;29;20411;-78
2022/04/13 11:42:39;;;;;;;5.35;2.88;;;18.60;63.30;;;;;;4937409;29;20031;-77
2022/04/13 11:45:08;;;;;;;4.07;2.65;;;18.70;64.40;;;;;;4954702;29;20028;-79
2022/04/13 11:47:38;;;;;;;4.70;2.72;;;18.70;65.40;;;;;;4954407;29;20031;-79
2022/04/13 11:50:14;;;;;;;8.88;2.47;;;18.80;63.90;;;;;;4937325;29;20478;-78
2022/04/13 11:52:46;;;;;;;6.07;2.45;;;18.90;66.20;;;;;;4954450;29;20114;-78
2022/04/13 11:55:31;;;;;;;3.63;2.45;;;19.00;65.20;;;;;;4937358;29;20051;-77
2022/04/13 11:58:00;;;;;;;3.78;2.28;;;19.00;64.20;;;;;;4954628;29;20030;-80
2022/04/13 12:00:50;;;;;;;4.28;2.13;;;19.10;62.40;;;;;;4937187;29;20078;-80
2022/04/13 12:03:33;;;;;;;3.80;2.50;;;19.20;61.70;;;;;;4937219;29;20043;-78
2022/04/13 12:06:03;;;;;;;4.95;2.25;;;19.20;60.50;;;;;;4937257;29;20053;-80
2022/04/13 12:08:30;;;;;;;4.82;2.08;;;19.10;59.80;;;;;;4954489;29;20035;-78
2022/04/13 12:11:03;;;;;;;4.32;2.15;;;19.10;61.30;;;;;;4954346;29;20475;-79
2022/04/13 12:13:33;;;;;;;4.78;1.73;;;19.20;61.70;;;;;;4937041;29;20439;-78
2022/04/13 12:16:01;;;;;;;5.53;2.00;;;19.30;60.20;;;;;;4937061;29;20023;-78
2022/04/13 12:18:27;;;;;;;2.90;1.92;;;19.30;58.60;;;;;;4954323;29;20917;-78
2022/04/13 12:21:05;;;;;;;2.15;1.65;;;19.30;59.90;;;;;;4954317;29;20031;-79
2022/04/13 12:23:35;;;;;;;2.38;1.75;;;19.40;58.90;;;;;;4954198;29;20023;-78
2022/04/13 12:26:01;;;;;;;2.25;1.80;;;19.50;59.10;;;;;;4954024;29;20045;-78
2022/04/13 12:28:27;;;;;;;2.15;1.95;;;19.40;59.30;;;;;;4954161;29;20478;-78
2022/04/13 12:31:02;;;;;;;4.32;2.30;;;19.50;58.40;;;;;;4936922;29;20399;-78
2022/04/13 12:33:29;;;;;;;3.13;1.73;;;19.50;58.50;;;;;;4953985;29;20581;-78
2022/04/13 12:36:00;;;;;;;4.47;1.98;;;19.50;56.70;;;;;;4954047;29;20031;-78
2022/04/13 12:38:30;;;;;;;4.68;2.00;;;19.50;57.40;;;;;;4937075;29;20085;-78
2022/04/13 12:41:13;;;;;;;2.35;1.70;;;19.40;57.80;;;;;;4954109;29;20027;-78
2022/04/13 12:43:56;;;;;;;4.25;1.48;;;19.60;57.80;;;;;;4938550;29;20035;-78
2022/04/13 12:46:24;;;;;;;3.22;1.88;;;19.70;56.10;;;;;;4957963;29;20082;-78
2022/04/13 12:48:57;;;;;;;5.47;1.75;;;19.70;55.10;;;;;;4958041;29;20028;-78
2022/04/13 12:51:23;;;;;;;3.20;1.88;;;19.60;56.60;;;;;;4957863;29;20419;-79
2022/04/13 12:54:03;;;;;;;2.80;1.75;;;19.70;57.70;;;;;;4957980;29;20035;-79